Tuckerman, AR (72473)

12:14 PM CST am 27. November 2014 (GMT -0600)
Newport | Change Station
CLOSE
Current Station
Flughafen
Location: Newport,
Höhe: 240 ft
Wetterstationen in der Umgebung

Höhe 240 ft 35.64 °N, 91.17 °W | Updated 18 minutes ago

Heiter
Heiter
44 °F
gefühlte 40 °F
N
6
Wind Wechselnd Wind aus Nord-Nordwest

Heute
Max. -- | schwach -- °F
--% Regenrisiko
Gestern
Max. -- | schwach -- °F
Precip. -- inch
6:52 AM 4:52 PM
Erstes Viertel, 31% visible
Druck 30.53 inch
Sichtweite 10.0 Meilen
Wolken Wolkig 3300 ft
Windchill 40 °F
Taupunkt 28 °F
Feuchtigkeit 54%
Regen 0.00 inch
Schneehöhe Nicht verfügbar..
UV 2 von 12
Pollen 3.00 von 12
Luftqualität Nicht verfügbar..
Flu Activity Nicht verfügbar..
METAR KM19 271756Z AUTO 34005KT 10SM BKN033 07/M02 A3053 RMK AO2 50008 T00661022 10072 20027 BKN V SCT SLP339

More Conditions Fewer Conditions

Druck 30.53 inch
Sichtweite 10.0 Meilen
Wolken Wolkig 3300 ft
Windchill 40 °F
Taupunkt 28 °F
Feuchtigkeit 54%
Regen 0.00 inch
Schneehöhe Nicht verfügbar..
UV 2 von 12
Pollen 3.00 von 12
Luftqualität Nicht verfügbar..
Flu Activity Nicht verfügbar..
METAR KM19 271756Z AUTO 34005KT 10SM BKN033 07/M02 A3053 RMK AO2 50008 T00661022 10072 20027 BKN V SCT SLP339

More Conditions Fewer Conditions

10-Day Weather Forecast

Almanac

Astronomie

Nov. 27, 2014 Aufgang Untergang
Genaue Zeit
Bürgerliche Dämmerung
Nautische Dämmerung
Astronomische Dämmerung
Mond
Länge des sichtbaren Lichts
Tageslänge
Tomorrow will be .
, % of the Moon is Illuminated

Heutige Rekorde

State Highs State Lows

Community

WunderPhotos

Upload Photos

1,774,076 Fotos hochgeladen!

WunderBlogs® & News

Nearby

Luftqualität

  Luftqualität LQ Index Schadstoff
Not available.

Schneehöhe

Station Depth Höhe

Erdbebenaktivität

Stadt Distance Mag. Time & Date
Minimum magnitude displayed is 2.5.

küstennahe Wassertemperaturen

Ort Temperatur

Wetterstationen in der Umgebung